createdAt,value
2022-09-14T00:01:27.154Z,2.87
2022-09-14T00:03:56.570Z,2.80
2022-09-14T00:06:25.035Z,2.90
2022-09-14T00:08:54.154Z,3.30
2022-09-14T00:11:24.865Z,2.53
2022-09-14T00:13:53.814Z,2.53
2022-09-14T00:16:23.011Z,2.50
2022-09-14T00:18:54.625Z,2.70
2022-09-14T00:21:23.436Z,3.33
2022-09-14T00:23:51.759Z,2.50
2022-09-14T00:26:21.097Z,3.00
2022-09-14T00:28:51.942Z,3.00
2022-09-14T00:31:21.132Z,2.93
2022-09-14T00:33:50.445Z,3.20
2022-09-14T00:36:20.227Z,2.97
2022-09-14T00:38:48.933Z,3.00
2022-09-14T00:41:18.447Z,2.80
2022-09-14T00:43:58.851Z,2.80
2022-09-14T00:46:28.402Z,2.67
2022-09-14T00:48:58.117Z,2.70
2022-09-14T00:51:26.736Z,3.00
2022-09-14T00:53:55.355Z,2.70
2022-09-14T00:56:23.788Z,3.07
2022-09-14T00:58:53.681Z,2.73
2022-09-14T01:01:23.503Z,3.10
2022-09-14T01:03:51.929Z,2.80
2022-09-14T01:06:23.854Z,3.20
2022-09-14T01:08:58.453Z,2.97
2022-09-14T01:11:35.023Z,2.73
2022-09-14T01:14:09.180Z,2.80
2022-09-14T01:16:43.001Z,2.83
2022-09-14T01:19:16.717Z,2.83
2022-09-14T01:21:46.714Z,3.03
2022-09-14T01:24:20.380Z,2.70
2022-09-14T01:26:59.896Z,3.17
2022-09-14T01:29:32.930Z,2.67
2022-09-14T01:32:04.349Z,3.20
2022-09-14T01:34:34.756Z,2.87
2022-09-14T01:37:06.109Z,2.90
2022-09-14T01:39:36.836Z,3.60
2022-09-14T01:42:06.003Z,3.33
2022-09-14T01:44:38.041Z,3.20
2022-09-14T01:47:08.486Z,3.03
2022-09-14T01:49:39.914Z,3.60
2022-09-14T01:52:12.509Z,3.10
2022-09-14T01:54:42.930Z,3.80
2022-09-14T01:57:13.731Z,3.50
2022-09-14T01:59:44.973Z,3.33
2022-09-14T02:02:14.638Z,3.47
2022-09-14T02:04:45.482Z,3.50
2022-09-14T02:07:13.930Z,3.40
2022-09-14T02:09:42.463Z,3.27
2022-09-14T02:12:11.020Z,3.90
2022-09-14T02:14:39.463Z,3.80
2022-09-14T02:17:09.285Z,3.57
2022-09-14T02:19:39.420Z,3.87
2022-09-14T02:22:07.784Z,3.40
2022-09-14T02:24:36.182Z,3.47
2022-09-14T02:27:04.943Z,3.73
2022-09-14T02:29:33.304Z,3.63
2022-09-14T02:32:06.595Z,4.00
2022-09-14T02:34:49.672Z,4.00
2022-09-14T02:37:20.191Z,3.80
2022-09-14T02:39:49.934Z,3.80
2022-09-14T02:42:23.164Z,3.57
2022-09-14T02:44:56.534Z,4.20
2022-09-14T02:47:28.751Z,3.60
2022-09-14T02:50:03.790Z,4.00
2022-09-14T02:52:34.845Z,3.83
2022-09-14T02:55:06.880Z,3.53
2022-09-14T02:57:35.398Z,4.63
2022-09-14T03:00:04.035Z,4.17
2022-09-14T03:02:32.445Z,4.37
2022-09-14T03:05:02.174Z,4.10
2022-09-14T03:07:30.532Z,3.70
2022-09-14T03:09:58.905Z,3.70
2022-09-14T03:12:27.237Z,3.90
2022-09-14T03:14:55.625Z,3.90
2022-09-14T03:17:23.955Z,3.93
2022-09-14T03:19:52.367Z,3.70
2022-09-14T03:22:22.071Z,3.80
2022-09-14T03:24:50.717Z,4.50
2022-09-14T03:27:19.041Z,4.00
2022-09-14T03:29:48.336Z,4.00
2022-09-14T03:32:16.681Z,4.33
2022-09-14T03:34:45.047Z,3.90
2022-09-14T03:37:13.644Z,3.60
2022-09-14T03:39:43.434Z,3.60
2022-09-14T03:42:12.122Z,4.00
2022-09-14T03:44:40.487Z,3.63
2022-09-14T03:47:08.988Z,3.37
2022-09-14T03:49:37.507Z,3.40
2022-09-14T03:52:05.971Z,3.00
2022-09-14T03:54:34.330Z,3.13
2022-09-14T03:57:04.053Z,3.57
2022-09-14T03:59:32.431Z,2.90
2022-09-14T04:02:01.037Z,3.50
2022-09-14T04:04:29.775Z,3.40
2022-09-14T04:06:58.195Z,3.17
2022-09-14T04:09:26.583Z,3.40
2022-09-14T04:11:54.927Z,3.63
2022-09-14T04:14:25.155Z,3.20
2022-09-14T04:16:53.534Z,3.23
2022-09-14T04:19:21.942Z,3.60
2022-09-14T04:21:50.263Z,3.30
2022-09-14T04:24:18.990Z,3.47
2022-09-14T04:26:47.908Z,3.73
2022-09-14T04:29:16.296Z,3.20
2022-09-14T04:31:46.024Z,3.20
2022-09-14T04:34:14.827Z,3.37
2022-09-14T04:36:43.525Z,3.30
2022-09-14T04:39:13.813Z,3.23
2022-09-14T04:41:42.397Z,3.00
2022-09-14T04:44:10.759Z,3.50
2022-09-14T04:46:43.543Z,3.47
2022-09-14T04:49:15.783Z,3.17
2022-09-14T04:51:44.181Z,2.93
2022-09-14T04:54:16.698Z,3.30
2022-09-14T04:56:45.789Z,3.13
2022-09-14T04:59:15.602Z,3.10
2022-09-14T05:01:45.318Z,3.10
2022-09-14T05:04:14.140Z,3.20
2022-09-14T05:06:45.814Z,3.10
2022-09-14T05:09:15.364Z,3.33
2022-09-14T05:11:44.125Z,3.50
2022-09-14T05:14:13.689Z,3.40
2022-09-14T05:16:44.032Z,3.67
2022-09-14T05:19:14.538Z,3.33
2022-09-14T05:21:44.680Z,3.40
2022-09-14T05:24:14.931Z,3.63
2022-09-14T05:26:43.858Z,3.20
2022-09-14T05:29:13.985Z,3.80
2022-09-14T05:31:42.559Z,4.27
2022-09-14T05:34:11.309Z,3.50
2022-09-14T05:36:39.927Z,3.70
2022-09-14T05:39:10.157Z,3.40
2022-09-14T05:41:38.904Z,3.43
2022-09-14T05:44:07.583Z,3.33
2022-09-14T05:46:36.432Z,3.43
2022-09-14T05:49:04.916Z,3.70
2022-09-14T05:51:33.306Z,3.40
2022-09-14T05:54:01.963Z,3.20
2022-09-14T05:56:32.702Z,3.70
2022-09-14T05:59:01.085Z,3.90
2022-09-14T06:01:31.084Z,3.43
2022-09-14T06:04:02.169Z,4.33
2022-09-14T06:06:31.157Z,3.60
2022-09-14T06:08:59.542Z,4.17
2022-09-14T06:11:28.574Z,3.93
2022-09-14T06:13:58.849Z,4.00
2022-09-14T06:16:28.563Z,4.10
2022-09-14T06:18:57.763Z,4.27
2022-09-14T06:21:29.023Z,4.50
2022-09-14T06:23:57.405Z,5.20
2022-09-14T06:26:25.861Z,5.00
2022-09-14T06:28:54.258Z,4.47
2022-09-14T06:31:25.405Z,5.10
2022-09-14T06:33:54.199Z,4.90
2022-09-14T06:36:23.008Z,5.27
2022-09-14T06:38:51.665Z,5.50
2022-09-14T06:41:21.746Z,4.80
2022-09-14T06:43:50.837Z,5.40
2022-09-14T06:46:20.133Z,4.90
2022-09-14T06:48:50.526Z,4.67
2022-09-14T06:51:20.693Z,5.13
2022-09-14T06:53:49.546Z,4.50
2022-09-14T06:56:18.674Z,4.67
2022-09-14T06:58:47.342Z,4.60
2022-09-14T07:01:17.370Z,4.33
2022-09-14T07:03:47.067Z,4.50
2022-09-14T07:06:17.797Z,4.50
2022-09-14T07:08:46.312Z,4.77
2022-09-14T07:11:15.567Z,4.60
2022-09-14T07:13:43.947Z,4.50
2022-09-14T07:16:12.489Z,4.40
2022-09-14T07:18:41.327Z,4.27
2022-09-14T07:21:10.662Z,4.00
2022-09-14T07:23:41.178Z,5.10
2022-09-14T07:26:11.099Z,4.00
2022-09-14T07:28:39.646Z,4.67
2022-09-14T07:31:15.573Z,3.90
2022-09-14T07:33:44.254Z,4.20
2022-09-14T07:36:13.597Z,4.23
2022-09-14T07:38:58.669Z,3.90
2022-09-14T07:41:32.269Z,3.97
2022-09-14T07:44:01.608Z,3.87
2022-09-14T07:46:30.687Z,3.67
2022-09-14T07:48:59.827Z,4.20
2022-09-14T07:51:29.008Z,4.03
2022-09-14T07:53:58.997Z,4.40
2022-09-14T07:56:27.415Z,4.07
2022-09-14T07:59:07.141Z,4.20
2022-09-14T08:01:45.524Z,4.63
2022-09-14T08:04:14.027Z,3.83
2022-09-14T08:06:42.407Z,3.60
2022-09-14T08:09:12.146Z,4.20
2022-09-14T08:11:40.810Z,3.97
2022-09-14T08:14:11.550Z,3.93
2022-09-14T08:16:40.854Z,3.33
2022-09-14T08:19:10.906Z,3.43
2022-09-14T08:21:44.104Z,3.00
2022-09-14T08:24:16.878Z,3.30
2022-09-14T08:26:45.399Z,2.57
2022-09-14T08:29:13.863Z,2.73
2022-09-14T08:31:43.307Z,3.03
2022-09-14T08:34:11.912Z,3.00
2022-09-14T08:36:41.343Z,2.38
2022-09-14T08:39:10.826Z,2.40
2022-09-14T08:41:42.885Z,1.95
2022-09-14T08:44:16.877Z,2.20
2022-09-14T08:46:47.286Z,2.58
2022-09-14T08:49:17.657Z,2.17
2022-09-14T08:51:46.305Z,1.90
2022-09-14T08:54:14.797Z,2.10
2022-09-14T08:56:46.112Z,1.92
2022-09-14T08:59:21.792Z,1.92
2022-09-14T09:01:53.647Z,1.80
2022-09-14T09:04:26.838Z,1.70
2022-09-14T09:06:58.144Z,1.90
2022-09-14T09:09:31.279Z,2.15
2022-09-14T09:12:01.436Z,1.85
2022-09-14T09:14:33.056Z,1.65
2022-09-14T09:17:03.053Z,1.73
2022-09-14T09:19:34.856Z,1.83
2022-09-14T09:22:05.952Z,1.50
2022-09-14T09:24:37.411Z,1.75
2022-09-14T09:27:10.800Z,1.90
2022-09-14T09:29:39.196Z,1.70
2022-09-14T09:32:09.686Z,1.40
2022-09-14T09:34:38.097Z,1.67
2022-09-14T09:37:06.430Z,1.67
2022-09-14T09:39:35.686Z,1.70
2022-09-14T09:42:08.488Z,1.73
2022-09-14T09:44:59.293Z,1.70
2022-09-14T09:47:31.789Z,1.35
2022-09-14T09:50:01.306Z,1.45
2022-09-14T09:52:32.547Z,1.60
2022-09-14T09:55:02.315Z,1.70
2022-09-14T09:57:32.105Z,1.80
2022-09-14T10:00:13.472Z,1.80
2022-09-14T10:02:42.159Z,1.45
2022-09-14T10:05:21.258Z,1.08
2022-09-14T10:07:57.692Z,1.67
2022-09-14T10:10:28.180Z,1.38
2022-09-14T10:12:57.292Z,1.80
2022-09-14T10:15:27.796Z,1.15
2022-09-14T10:18:04.731Z,1.42
2022-09-14T10:20:33.342Z,1.58
2022-09-14T10:23:16.314Z,1.35
2022-09-14T10:25:44.725Z,1.83
2022-09-14T10:28:22.494Z,1.35
2022-09-14T10:30:56.302Z,1.48
2022-09-14T10:33:24.959Z,1.40
2022-09-14T10:35:56.365Z,1.55
2022-09-14T10:38:31.165Z,1.50
2022-09-14T10:41:04.644Z,1.50
2022-09-14T10:43:38.504Z,1.35
2022-09-14T10:46:14.617Z,1.30
2022-09-14T10:48:48.327Z,1.75
2022-09-14T10:51:25.489Z,1.30
2022-09-14T10:53:57.489Z,1.50
2022-09-14T10:56:28.424Z,1.48
2022-09-14T10:59:05.833Z,1.58
2022-09-14T11:01:42.763Z,1.65
2022-09-14T11:04:19.232Z,1.38
2022-09-14T11:06:51.156Z,1.70
2022-09-14T11:09:23.427Z,1.50
2022-09-14T11:11:56.490Z,1.52
2022-09-14T11:14:36.250Z,1.70
2022-09-14T11:17:16.697Z,1.38
2022-09-14T11:19:49.384Z,1.45
2022-09-14T11:22:21.754Z,1.35
2022-09-14T11:24:53.619Z,1.23
2022-09-14T11:27:27.076Z,1.45
2022-09-14T11:29:57.934Z,1.20
2022-09-14T11:32:30.950Z,1.35
2022-09-14T11:35:01.186Z,1.20
2022-09-14T11:37:33.062Z,1.00
2022-09-14T11:40:05.295Z,1.50
2022-09-14T11:42:35.442Z,1.45
2022-09-14T11:45:07.468Z,1.40
2022-09-14T11:47:39.405Z,1.10
2022-09-14T11:50:16.036Z,1.13
2022-09-14T11:52:44.385Z,1.40
2022-09-14T11:55:17.213Z,1.35
2022-09-14T11:57:46.722Z,1.52
2022-09-14T12:00:30.535Z,1.25
2022-09-14T12:03:14.720Z,1.63
2022-09-14T12:05:44.868Z,1.40
2022-09-14T12:08:31.958Z,1.23
2022-09-14T12:11:01.106Z,1.40
2022-09-14T12:13:29.533Z,1.55
2022-09-14T12:16:05.095Z,1.13
2022-09-14T12:18:37.037Z,1.65
2022-09-14T12:21:08.140Z,1.33
2022-09-14T12:23:46.489Z,1.35
2022-09-14T12:26:26.511Z,1.40
2022-09-14T12:28:56.275Z,1.50
2022-09-14T12:31:36.302Z,1.35
2022-09-14T12:34:25.774Z,1.38
2022-09-14T12:37:14.965Z,1.67
2022-09-14T12:40:05.202Z,1.30
2022-09-14T12:42:33.818Z,1.30
2022-09-14T12:45:23.620Z,1.40
2022-09-14T12:47:52.845Z,1.23
2022-09-14T12:50:22.909Z,1.20
2022-09-14T12:52:55.319Z,1.25
2022-09-14T12:55:34.377Z,1.25
2022-09-14T12:58:05.332Z,1.67
2022-09-14T13:00:39.693Z,1.15
2022-09-14T13:03:16.763Z,1.42
2022-09-14T13:05:46.359Z,1.25
2022-09-14T13:08:14.988Z,1.30
2022-09-14T13:10:48.691Z,1.60
2022-09-14T13:13:18.250Z,1.20
2022-09-14T13:15:53.059Z,1.27
2022-09-14T13:18:32.899Z,1.30
2022-09-14T13:21:02.650Z,1.00
2022-09-14T13:23:33.612Z,1.17
2022-09-14T13:26:10.260Z,1.27
2022-09-14T13:28:38.610Z,1.20
2022-09-14T13:31:07.176Z,1.40
2022-09-14T13:33:35.599Z,1.30
2022-09-14T13:36:04.905Z,1.45
2022-09-14T13:38:34.425Z,1.30
2022-09-14T13:41:09.459Z,1.27
2022-09-14T13:43:37.973Z,1.00
2022-09-14T13:46:08.105Z,1.40
2022-09-14T13:48:37.888Z,1.30
2022-09-14T13:51:06.944Z,1.40
2022-09-14T13:53:40.452Z,1.08
2022-09-14T13:56:25.220Z,1.17
2022-09-14T13:59:13.618Z,1.40
2022-09-14T14:01:43.345Z,1.40
2022-09-14T14:04:24.894Z,1.30
2022-09-14T14:07:01.174Z,1.10
2022-09-14T14:09:42.752Z,1.35
2022-09-14T14:12:13.492Z,1.20
2022-09-14T14:14:41.897Z,1.10
2022-09-14T14:17:27.613Z,1.33
2022-09-14T14:19:57.639Z,1.30
2022-09-14T14:22:28.518Z,1.63
2022-09-14T14:25:13.198Z,1.00
2022-09-14T14:27:44.843Z,1.75
2022-09-14T14:30:16.090Z,1.30
2022-09-14T14:32:45.568Z,1.52
2022-09-14T14:35:18.269Z,1.20
2022-09-14T14:37:48.226Z,1.30
2022-09-14T14:40:17.864Z,1.50
2022-09-14T14:42:49.322Z,1.50
2022-09-14T14:45:19.736Z,1.35
2022-09-14T14:47:53.491Z,1.10
2022-09-14T14:50:24.653Z,1.38
2022-09-14T14:52:53.786Z,1.20
2022-09-14T14:55:23.990Z,1.30
2022-09-14T14:57:55.489Z,1.58
2022-09-14T15:00:25.600Z,1.50
2022-09-14T15:02:54.513Z,1.55
2022-09-14T15:05:25.993Z,1.33
2022-09-14T15:07:56.281Z,1.40
2022-09-14T15:10:27.137Z,1.35
2022-09-14T15:12:57.075Z,1.50
2022-09-14T15:15:26.981Z,1.63
2022-09-14T15:17:56.343Z,1.27
2022-09-14T15:20:25.023Z,1.30
2022-09-14T15:22:53.642Z,1.38
2022-09-14T15:25:23.002Z,1.63
2022-09-14T15:27:51.348Z,1.35
2022-09-14T15:30:21.145Z,1.50
2022-09-14T15:32:49.827Z,1.50
2022-09-14T15:35:18.587Z,1.40
2022-09-14T15:37:50.145Z,1.60
2022-09-14T15:40:20.579Z,1.52
2022-09-14T15:42:50.023Z,1.33
2022-09-14T15:45:22.635Z,1.60
2022-09-14T15:47:51.834Z,1.60
2022-09-14T15:50:20.887Z,1.33
2022-09-14T15:52:49.674Z,1.60
2022-09-14T15:55:18.740Z,1.63
2022-09-14T15:57:47.629Z,1.90
2022-09-14T16:00:16.817Z,2.50
2022-09-14T16:02:47.056Z,1.90
2022-09-14T16:05:16.290Z,1.67
2022-09-14T16:07:45.027Z,1.80
2022-09-14T16:10:15.157Z,1.60
2022-09-14T16:12:43.872Z,1.80
2022-09-14T16:15:14.861Z,1.67
2022-09-14T16:17:43.813Z,1.70
2022-09-14T16:20:13.896Z,1.67
2022-09-14T16:22:42.317Z,1.75
2022-09-14T16:25:10.640Z,2.13
2022-09-14T16:27:39.467Z,1.80
2022-09-14T16:30:08.684Z,1.70
2022-09-14T16:32:37.267Z,1.75
2022-09-14T16:35:08.131Z,1.90
2022-09-14T16:37:39.391Z,1.80
2022-09-14T16:40:13.418Z,1.60
2022-09-14T16:42:50.225Z,1.75
2022-09-14T16:45:22.661Z,1.55
2022-09-14T16:47:55.783Z,2.35
2022-09-14T16:50:33.496Z,1.60
2022-09-14T16:53:05.860Z,1.65
2022-09-14T16:55:34.239Z,1.50
2022-09-14T16:58:03.037Z,1.80
2022-09-14T17:00:32.042Z,1.95
2022-09-14T17:03:00.886Z,1.80
2022-09-14T17:05:30.587Z,1.90
2022-09-14T17:07:59.375Z,1.90
2022-09-14T17:10:29.376Z,1.90
2022-09-14T17:12:57.750Z,1.80
2022-09-14T17:15:26.119Z,1.67
2022-09-14T17:17:54.815Z,1.90
2022-09-14T17:20:23.651Z,1.60
2022-09-14T17:22:52.162Z,1.83
2022-09-14T17:25:23.710Z,1.77
2022-09-14T17:27:53.593Z,1.70
2022-09-14T17:30:22.031Z,2.05
2022-09-14T17:32:50.418Z,1.85
2022-09-14T17:35:18.914Z,1.70
2022-09-14T17:37:47.289Z,2.05
2022-09-14T17:40:15.794Z,1.75
2022-09-14T17:42:44.290Z,2.03
2022-09-14T17:45:14.677Z,1.90
2022-09-14T17:47:43.148Z,2.13
2022-09-14T17:50:11.874Z,2.10
2022-09-14T17:52:40.360Z,1.85
2022-09-14T17:55:08.897Z,2.00
2022-09-14T17:57:37.282Z,2.00
2022-09-14T18:00:06.311Z,1.90
2022-09-14T18:02:36.043Z,1.95
2022-09-14T18:05:04.554Z,1.98
2022-09-14T18:07:32.967Z,1.77
2022-09-14T18:10:01.308Z,1.60
2022-09-14T18:12:29.787Z,2.10
2022-09-14T18:14:58.519Z,1.90
2022-09-14T18:17:26.952Z,1.83
2022-09-14T18:19:58.485Z,1.83
2022-09-14T18:22:26.923Z,2.00
2022-09-14T18:24:55.282Z,1.90
2022-09-14T18:27:24.057Z,1.97
2022-09-14T18:29:52.397Z,2.37
2022-09-14T18:32:20.863Z,2.30
2022-09-14T18:34:49.228Z,1.97
2022-09-14T18:37:19.169Z,1.80
2022-09-14T18:39:47.546Z,1.97
2022-09-14T18:42:15.985Z,2.50
2022-09-14T18:44:45.293Z,2.10
2022-09-14T18:47:13.788Z,2.03
2022-09-14T18:49:42.132Z,1.93
2022-09-14T18:52:10.770Z,1.80
2022-09-14T18:54:40.571Z,1.97
2022-09-14T18:57:08.951Z,1.90
2022-09-14T18:59:37.310Z,2.00
2022-09-14T19:02:05.951Z,2.10
2022-09-14T19:04:34.343Z,2.10
2022-09-14T19:07:02.769Z,2.10
2022-09-14T19:09:31.100Z,2.10
2022-09-14T19:12:01.179Z,2.23
2022-09-14T19:14:29.735Z,2.27
2022-09-14T19:16:58.885Z,2.37
2022-09-14T19:19:27.289Z,2.23
2022-09-14T19:21:55.691Z,2.70
2022-09-14T19:24:24.034Z,2.00
2022-09-14T19:26:55.976Z,2.30
2022-09-14T19:29:32.114Z,2.23
2022-09-14T19:32:00.795Z,2.40
2022-09-14T19:34:29.736Z,2.57
2022-09-14T19:36:58.120Z,2.17
2022-09-14T19:39:27.171Z,2.63
2022-09-14T19:41:55.704Z,2.40
2022-09-14T19:44:24.755Z,2.40
2022-09-14T19:46:54.490Z,2.70
2022-09-14T19:49:23.769Z,2.90
2022-09-14T19:51:54.073Z,2.40
2022-09-14T19:54:22.825Z,2.77
2022-09-14T19:56:51.307Z,2.50
2022-09-14T19:59:19.709Z,3.00
2022-09-14T20:01:48.182Z,3.00
2022-09-14T20:04:19.355Z,2.70
2022-09-14T20:06:48.867Z,2.87
2022-09-14T20:09:18.086Z,2.87
2022-09-14T20:11:47.719Z,3.10
2022-09-14T20:14:16.919Z,3.03
2022-09-14T20:16:46.750Z,3.03
2022-09-14T20:19:16.111Z,3.40
2022-09-14T20:21:46.459Z,3.20
2022-09-14T20:24:17.466Z,3.70
2022-09-14T20:26:46.315Z,3.80
2022-09-14T20:29:15.207Z,3.67
2022-09-14T20:31:43.624Z,4.13
2022-09-14T20:34:12.341Z,4.20
2022-09-14T20:36:41.381Z,4.53
2022-09-14T20:39:11.336Z,4.60
2022-09-14T20:41:39.893Z,4.50
2022-09-14T20:44:08.289Z,4.57
2022-09-14T20:46:39.157Z,4.07
2022-09-14T20:49:10.238Z,4.07
2022-09-14T20:51:38.742Z,4.00
2022-09-14T20:54:07.506Z,3.97
2022-09-14T20:56:37.544Z,4.23
2022-09-14T20:59:07.112Z,3.67
2022-09-14T21:01:36.608Z,4.03
2022-09-14T21:04:05.993Z,4.03
2022-09-14T21:06:34.386Z,4.20
2022-09-14T21:09:02.818Z,4.30
2022-09-14T21:11:31.506Z,4.23
2022-09-14T21:14:01.363Z,4.20
2022-09-14T21:16:32.061Z,4.00
2022-09-14T21:19:01.504Z,4.50
2022-09-14T21:21:30.514Z,4.67
2022-09-14T21:23:59.699Z,4.43
2022-09-14T21:26:28.993Z,4.57
2022-09-14T21:28:58.008Z,4.27
2022-09-14T21:31:28.740Z,4.23
2022-09-14T21:33:58.889Z,4.17
2022-09-14T21:36:28.197Z,4.50
2022-09-14T21:38:57.455Z,4.73
2022-09-14T21:41:27.155Z,4.90
2022-09-14T21:43:56.518Z,4.70
2022-09-14T21:46:25.184Z,4.87
2022-09-14T21:48:55.829Z,4.53
2022-09-14T21:51:24.924Z,5.20
2022-09-14T21:53:54.499Z,5.07
2022-09-14T21:56:23.734Z,5.20
2022-09-14T21:58:52.951Z,4.97
2022-09-14T22:01:22.299Z,4.73
2022-09-14T22:03:51.439Z,4.73
2022-09-14T22:06:22.266Z,5.00
2022-09-14T22:08:51.875Z,5.00
2022-09-14T22:11:23.220Z,5.50
2022-09-14T22:13:54.886Z,4.90
2022-09-14T22:16:23.849Z,5.27
2022-09-14T22:18:52.978Z,5.33
2022-09-14T22:21:23.299Z,4.93
2022-09-14T22:23:52.162Z,5.57
2022-09-14T22:26:21.093Z,5.33
2022-09-14T22:28:49.958Z,5.87
2022-09-14T22:31:18.984Z,7.13
2022-09-14T22:33:47.436Z,6.90
2022-09-14T22:36:16.251Z,6.50
2022-09-14T22:38:46.514Z,7.20
2022-09-14T22:41:17.723Z,7.27
2022-09-14T22:43:46.522Z,7.77
2022-09-14T22:46:15.172Z,7.33
2022-09-14T22:48:43.620Z,7.90
2022-09-14T22:51:13.519Z,7.33
2022-09-14T22:53:42.020Z,8.10
2022-09-14T22:56:12.746Z,8.07
2022-09-14T22:58:41.219Z,8.07
2022-09-14T23:01:10.645Z,8.13
2022-09-14T23:03:39.094Z,7.60
2022-09-14T23:06:08.255Z,8.10
2022-09-14T23:08:37.015Z,7.93
2022-09-14T23:11:06.449Z,7.47
2022-09-14T23:13:38.088Z,8.30
2022-09-14T23:16:10.831Z,7.80
2022-09-14T23:18:39.179Z,7.97
2022-09-14T23:21:08.049Z,7.70
2022-09-14T23:23:36.439Z,7.97
2022-09-14T23:26:05.489Z,8.10
2022-09-14T23:28:34.359Z,8.23
2022-09-14T23:31:04.228Z,8.43
2022-09-14T23:33:32.965Z,8.00
2022-09-14T23:36:01.372Z,8.83
2022-09-14T23:38:29.805Z,9.07
2022-09-14T23:40:58.755Z,9.33
2022-09-14T23:43:27.126Z,8.83
2022-09-14T23:45:55.585Z,9.20
2022-09-14T23:48:25.503Z,8.90
2022-09-14T23:51:00.266Z,8.87
2022-09-14T23:53:28.884Z,8.17
2022-09-14T23:55:57.484Z,8.80
2022-09-14T23:58:26.403Z,8.40
